Hicksville, OH (43526)

12:59 PM EST on December 09, 2016 (GMT -0500)
Hicksville | | Change Station

Elev 774 ft 41.30 °N, 84.76 °W | Updated 5 seconds ago

Overcast
Overcast
30.6 °F
Feels Like 24 °F
N
7.3
Wind Variable Wind from NE
Gusts 7.3 mph

Today
High -- | Low -- °F
--% Chance of Precip.
Yesterday
High -- | Low -- °F
Precip. -- in
Pressure 30.45 in
Visibility 10.0 miles
Clouds Mostly Cloudy 2000 ft
Overcast 3800 ft
Windchill 24 °F
Dew Point 30 °F
Humidity 99%
Rainfall 0.00 in
Snow Depth Not available.
7:53 AM 5:09 PM
Waxing Gibbous, 76% visible
METAR KGWB 091735Z AUTO 29013G17KT 10SM BKN020 OVC038 M01/M06 A3045 RMK AO2
Pressure 30.45 in
Visibility 10.0 miles
Clouds Mostly Cloudy 2000 ft
Overcast 3800 ft
Windchill 24 °F
Dew Point 30 °F
Humidity 99%
Rainfall 0.00 in
Snow Depth Not available.
7:53 AM 5:09 PM
Waxing Gibbous, 76% visible
METAR KGWB 091735Z AUTO 29013G17KT 10SM BKN020 OVC038 M01/M06 A3045 RMK AO2

10-Day Weather Forecast

Almanac

Astronomy

Dec. 09, 2016 Rise Set
Actual Time
Civil Twilight
Nautical Twilight
Astronomical Twilight
Moon
Length of Visible Light
Length of Day
Tomorrow will be .
, % of the Moon is Illuminated

Today's Extremes

State Highs State Lows

Community

WunderPhotos

Upload Photos

1,956,499 photos uploaded!

WunderBlog® & News

Nearby

Air Quality

  Air Quality AQ Index Pollutant
Not available.

Snow Depth

Station Depth Elevation

Earthquake Activity

City Distance Mag. Time & Date
Minimum magnitude displayed is 2.5.

Coastal Water Temperatures

Place Temperature

Stations

Nearby Weather Stations

Station Location Temp. Windchill Dew Point Humidity Wind Precip. Elev Updated Type
                   

Watches & Warnings

There are currently no watches in effect.